sensor_id;sensor_type;location;lat;lon;timestamp;temperature;humidity
52435;DHT22;38354;52.892;6.148;2023-05-07T04:00:32;12.00;99.90
52435;DHT22;38354;52.892;6.148;2023-05-07T04:03:02;12.00;99.90
52435;DHT22;38354;52.892;6.148;2023-05-07T04:05:29;11.90;99.90
52435;DHT22;38354;52.892;6.148;2023-05-07T04:07:55;11.90;99.90
52435;DHT22;38354;52.892;6.148;2023-05-07T04:10:21;11.90;99.90
52435;DHT22;38354;52.892;6.148;2023-05-07T04:12:46;11.90;99.90
52435;DHT22;38354;52.892;6.148;2023-05-07T04:15:12;11.90;99.90
52435;DHT22;38354;52.892;6.148;2023-05-07T04:17:38;11.90;99.90
52435;DHT22;38354;52.892;6.148;2023-05-07T04:20:04;11.90;99.90
52435;DHT22;38354;52.892;6.148;2023-05-07T04:22:30;11.80;99.90
52435;DHT22;38354;52.892;6.148;2023-05-07T04:24:55;11.80;99.90
52435;DHT22;38354;52.892;6.148;2023-05-07T04:27:21;11.80;99.90
52435;DHT22;38354;52.892;6.148;2023-05-07T04:29:47;11.80;99.90
52435;DHT22;38354;52.892;6.148;2023-05-07T04:32:13;11.80;99.90
52435;DHT22;38354;52.892;6.148;2023-05-07T04:34:39;11.80;99.90
52435;DHT22;38354;52.892;6.148;2023-05-07T04:37:04;11.90;99.90
52435;DHT22;38354;52.892;6.148;2023-05-07T04:39:30;11.80;99.90
52435;DHT22;38354;52.892;6.148;2023-05-07T04:41:55;11.90;99.90
52435;DHT22;38354;52.892;6.148;2023-05-07T04:44:21;11.90;99.90
52435;DHT22;38354;52.892;6.148;2023-05-07T04:46:47;11.90;99.90
52435;DHT22;38354;52.892;6.148;2023-05-07T04:49:12;11.90;99.90
52435;DHT22;38354;52.892;6.148;2023-05-07T04:51:39;11.90;99.90
52435;DHT22;38354;52.892;6.148;2023-05-07T04:54:08;11.90;99.90
52435;DHT22;38354;52.892;6.148;2023-05-07T04:56:33;11.90;99.90
52435;DHT22;38354;52.892;6.148;2023-05-07T04:58:59;11.90;99.90
52435;DHT22;38354;52.892;6.148;2023-05-07T05:01:24;11.90;99.90
52435;DHT22;38354;52.892;6.148;2023-05-07T05:03:50;11.80;99.90
52435;DHT22;38354;52.892;6.148;2023-05-07T05:06:16;11.80;99.90
52435;DHT22;38354;52.892;6.148;2023-05-07T05:08:41;11.90;99.90
52435;DHT22;38354;52.892;6.148;2023-05-07T05:11:07;11.90;99.90
52435;DHT22;38354;52.892;6.148;2023-05-07T05:13:33;11.90;99.90
52435;DHT22;38354;52.892;6.148;2023-05-07T05:15:58;11.90;99.90
52435;DHT22;38354;52.892;6.148;2023-05-07T05:18:24;11.90;99.90
52435;DHT22;38354;52.892;6.148;2023-05-07T05:20:51;11.90;99.90
52435;DHT22;38354;52.892;6.148;2023-05-07T05:23:17;11.90;99.90
52435;DHT22;38354;52.892;6.148;2023-05-07T05:25:42;11.90;99.90
52435;DHT22;38354;52.892;6.148;2023-05-07T05:28:08;11.90;99.90
52435;DHT22;38354;52.892;6.148;2023-05-07T05:30:34;12.00;99.90
52435;DHT22;38354;52.892;6.148;2023-05-07T05:32:59;12.00;99.90
52435;DHT22;38354;52.892;6.148;2023-05-07T05:35:25;12.00;99.90
52435;DHT22;38354;52.892;6.148;2023-05-07T05:37:51;12.00;99.90
52435;DHT22;38354;52.892;6.148;2023-05-07T05:40:16;12.00;99.90
52435;DHT22;38354;52.892;6.148;2023-05-07T05:42:42;12.00;99.90
52435;DHT22;38354;52.892;6.148;2023-05-07T05:45:08;12.00;99.90
52435;DHT22;38354;52.892;6.148;2023-05-07T05:47:34;12.00;99.90
52435;DHT22;38354;52.892;6.148;2023-05-07T05:49:59;12.00;99.90
52435;DHT22;38354;52.892;6.148;2023-05-07T05:52:25;11.90;99.90
52435;DHT22;38354;52.892;6.148;2023-05-07T05:54:51;12.00;99.90
52435;DHT22;38354;52.892;6.148;2023-05-07T05:57:16;12.00;99.90
52435;DHT22;38354;52.892;6.148;2023-05-07T05:59:42;12.00;99.90
52435;DHT22;38354;52.892;6.148;2023-05-07T06:02:08;11.90;99.90
52435;DHT22;38354;52.892;6.148;2023-05-07T06:04:33;12.00;99.90
52435;DHT22;38354;52.892;6.148;2023-05-07T06:06:59;12.00;99.90
52435;DHT22;38354;52.892;6.148;2023-05-07T06:09:25;12.00;99.90
52435;DHT22;38354;52.892;6.148;2023-05-07T06:11:51;12.10;99.90
52435;DHT22;38354;52.892;6.148;2023-05-07T06:14:16;12.10;99.90
52435;DHT22;38354;52.892;6.148;2023-05-07T06:16:42;12.20;99.90
52435;DHT22;38354;52.892;6.148;2023-05-07T06:19:07;12.20;99.90
52435;DHT22;38354;52.892;6.148;2023-05-07T06:21:33;12.20;99.90
52435;DHT22;38354;52.892;6.148;2023-05-07T06:23:59;12.30;99.90
52435;DHT22;38354;52.892;6.148;2023-05-07T06:26:24;12.30;99.90
52435;DHT22;38354;52.892;6.148;2023-05-07T06:28:50;12.40;99.90
52435;DHT22;38354;52.892;6.148;2023-05-07T06:31:18;12.30;99.90
52435;DHT22;38354;52.892;6.148;2023-05-07T06:33:48;12.40;99.90
52435;DHT22;38354;52.892;6.148;2023-05-07T06:36:14;12.50;99.90
52435;DHT22;38354;52.892;6.148;2023-05-07T06:38:40;12.50;99.90
52435;DHT22;38354;52.892;6.148;2023-05-07T06:41:06;12.50;99.90
52435;DHT22;38354;52.892;6.148;2023-05-07T06:43:32;12.50;99.90
52435;DHT22;38354;52.892;6.148;2023-05-07T06:45:58;12.60;99.90
52435;DHT22;38354;52.892;6.148;2023-05-07T06:48:23;12.60;99.90
52435;DHT22;38354;52.892;6.148;2023-05-07T06:50:49;12.60;99.90
52435;DHT22;38354;52.892;6.148;2023-05-07T06:53:15;12.70;99.90
52435;DHT22;38354;52.892;6.148;2023-05-07T06:55:41;12.70;99.90
52435;DHT22;38354;52.892;6.148;2023-05-07T06:58:07;12.80;99.90
52435;DHT22;38354;52.892;6.148;2023-05-07T07:00:33;12.90;99.90
52435;DHT22;38354;52.892;6.148;2023-05-07T07:02:58;13.00;99.90
52435;DHT22;38354;52.892;6.148;2023-05-07T07:05:25;13.00;99.90
52435;DHT22;38354;52.892;6.148;2023-05-07T07:07:51;13.10;99.90
52435;DHT22;38354;52.892;6.148;2023-05-07T07:10:20;13.10;99.90
52435;DHT22;38354;52.892;6.148;2023-05-07T07:12:46;13.10;99.90
52435;DHT22;38354;52.892;6.148;2023-05-07T07:15:12;13.10;99.90
52435;DHT22;38354;52.892;6.148;2023-05-07T07:17:38;13.10;99.90
52435;DHT22;38354;52.892;6.148;2023-05-07T07:20:04;13.20;99.90
52435;DHT22;38354;52.892;6.148;2023-05-07T07:22:30;13.20;99.90
52435;DHT22;38354;52.892;6.148;2023-05-07T07:24:56;13.20;99.90
52435;DHT22;38354;52.892;6.148;2023-05-07T07:27:21;13.30;99.90
52435;DHT22;38354;52.892;6.148;2023-05-07T07:29:47;13.30;99.90
52435;DHT22;38354;52.892;6.148;2023-05-07T07:32:13;13.40;99.90
52435;DHT22;38354;52.892;6.148;2023-05-07T07:34:38;13.50;99.90
52435;DHT22;38354;52.892;6.148;2023-05-07T07:37:04;13.60;99.90
52435;DHT22;38354;52.892;6.148;2023-05-07T07:39:34;13.60;99.90
52435;DHT22;38354;52.892;6.148;2023-05-07T07:42:00;13.70;99.90
52435;DHT22;38354;52.892;6.148;2023-05-07T07:44:27;13.70;99.90
52435;DHT22;38354;52.892;6.148;2023-05-07T07:46:52;13.80;99.90
52435;DHT22;38354;52.892;6.148;2023-05-07T07:49:18;13.80;99.90
52435;DHT22;38354;52.892;6.148;2023-05-07T07:51:47;13.80;99.90
52435;DHT22;38354;52.892;6.148;2023-05-07T07:54:13;13.90;99.90
52435;DHT22;38354;52.892;6.148;2023-05-07T07:56:38;14.00;99.90
52435;DHT22;38354;52.892;6.148;2023-05-07T07:59:04;14.00;99.90
52435;DHT22;38354;52.892;6.148;2023-05-07T08:01:33;14.10;99.90
52435;DHT22;38354;52.892;6.148;2023-05-07T08:03:59;14.20;99.90
52435;DHT22;38354;52.892;6.148;2023-05-07T08:06:24;14.20;99.90
52435;DHT22;38354;52.892;6.148;2023-05-07T08:08:51;14.30;99.90
52435;DHT22;38354;52.892;6.148;2023-05-07T08:11:17;14.40;99.90
52435;DHT22;38354;52.892;6.148;2023-05-07T08:13:43;14.50;99.90
52435;DHT22;38354;52.892;6.148;2023-05-07T08:16:08;14.50;99.90
52435;DHT22;38354;52.892;6.148;2023-05-07T08:18:34;14.60;99.90
52435;DHT22;38354;52.892;6.148;2023-05-07T08:21:01;14.70;99.90
52435;DHT22;38354;52.892;6.148;2023-05-07T08:23:26;14.70;99.90
52435;DHT22;38354;52.892;6.148;2023-05-07T08:25:52;14.80;99.90
52435;DHT22;38354;52.892;6.148;2023-05-07T08:28:18;14.80;99.90
52435;DHT22;38354;52.892;6.148;2023-05-07T08:30:45;14.80;99.90
52435;DHT22;38354;52.892;6.148;2023-05-07T08:33:11;14.90;99.90
52435;DHT22;38354;52.892;6.148;2023-05-07T08:35:36;15.00;99.90
52435;DHT22;38354;52.892;6.148;2023-05-07T08:38:02;15.10;99.90
52435;DHT22;38354;52.892;6.148;2023-05-07T08:40:28;15.20;99.90
52435;DHT22;38354;52.892;6.148;2023-05-07T08:42:55;15.20;99.90
52435;DHT22;38354;52.892;6.148;2023-05-07T08:45:22;15.30;99.90
52435;DHT22;38354;52.892;6.148;2023-05-07T08:47:52;15.40;99.90
52435;DHT22;38354;52.892;6.148;2023-05-07T08:50:20;15.50;99.90
52435;DHT22;38354;52.892;6.148;2023-05-07T08:52:47;15.60;99.90
52435;DHT22;38354;52.892;6.148;2023-05-07T08:55:13;15.60;99.90
52435;DHT22;38354;52.892;6.148;2023-05-07T08:57:39;15.70;99.90
52435;DHT22;38354;52.892;6.148;2023-05-07T09:00:05;15.80;99.90
52435;DHT22;38354;52.892;6.148;2023-05-07T09:02:33;15.80;99.90
52435;DHT22;38354;52.892;6.148;2023-05-07T09:04:58;15.90;99.90
52435;DHT22;38354;52.892;6.148;2023-05-07T09:07:25;15.90;99.90
52435;DHT22;38354;52.892;6.148;2023-05-07T09:09:51;16.00;99.90
52435;DHT22;38354;52.892;6.148;2023-05-07T09:12:18;16.00;99.90
52435;DHT22;38354;52.892;6.148;2023-05-07T09:14:44;15.90;99.90
52435;DHT22;38354;52.892;6.148;2023-05-07T09:17:11;15.90;99.90
52435;DHT22;38354;52.892;6.148;2023-05-07T09:19:36;15.90;99.90
52435;DHT22;38354;52.892;6.148;2023-05-07T09:22:03;15.90;99.90
52435;DHT22;38354;52.892;6.148;2023-05-07T09:24:30;15.90;99.90
52435;DHT22;38354;52.892;6.148;2023-05-07T09:26:59;15.90;99.90
52435;DHT22;38354;52.892;6.148;2023-05-07T09:29:26;15.90;99.90
52435;DHT22;38354;52.892;6.148;2023-05-07T09:31:55;15.90;99.90
52435;DHT22;38354;52.892;6.148;2023-05-07T09:34:20;16.00;99.90
52435;DHT22;38354;52.892;6.148;2023-05-07T09:36:46;16.20;99.90
52435;DHT22;38354;52.892;6.148;2023-05-07T09:39:13;16.50;99.90
52435;DHT22;38354;52.892;6.148;2023-05-07T09:41:48;16.80;99.90
52435;DHT22;38354;52.892;6.148;2023-05-07T09:44:15;17.00;99.90
52435;DHT22;38354;52.892;6.148;2023-05-07T09:46:43;17.40;99.90
52435;DHT22;38354;52.892;6.148;2023-05-07T09:49:13;17.60;99.90
52435;DHT22;38354;52.892;6.148;2023-05-07T09:51:49;17.70;99.90
52435;DHT22;38354;52.892;6.148;2023-05-07T09:54:15;17.90;99.90
52435;DHT22;38354;52.892;6.148;2023-05-07T09:56:45;18.10;99.90
52435;DHT22;38354;52.892;6.148;2023-05-07T09:59:16;18.40;99.90
52435;DHT22;38354;52.892;6.148;2023-05-07T10:01:43;18.60;99.90
52435;DHT22;38354;52.892;6.148;2023-05-07T10:04:10;18.60;99.90
52435;DHT22;38354;52.892;6.148;2023-05-07T10:06:37;18.50;99.90
52435;DHT22;38354;52.892;6.148;2023-05-07T10:09:04;18.40;99.90
52435;DHT22;38354;52.892;6.148;2023-05-07T10:11:34;18.20;99.90
52435;DHT22;38354;52.892;6.148;2023-05-07T10:14:04;18.10;99.90
52435;DHT22;38354;52.892;6.148;2023-05-07T10:16:36;18.10;99.90
52435;DHT22;38354;52.892;6.148;2023-05-07T10:19:07;18.00;99.90
52435;DHT22;38354;52.892;6.148;2023-05-07T10:21:36;18.00;99.90
52435;DHT22;38354;52.892;6.148;2023-05-07T10:24:09;18.10;99.90
52435;DHT22;38354;52.892;6.148;2023-05-07T10:26:41;18.20;99.90
52435;DHT22;38354;52.892;6.148;2023-05-07T10:34:53;18.40;99.90
52435;DHT22;38354;52.892;6.148;2023-05-07T10:37:20;18.50;99.90
52435;DHT22;38354;52.892;6.148;2023-05-07T10:39:46;18.60;99.90
52435;DHT22;38354;52.892;6.148;2023-05-07T10:42:14;18.80;99.90
52435;DHT22;38354;52.892;6.148;2023-05-07T10:44:40;18.90;99.90
52435;DHT22;38354;52.892;6.148;2023-05-07T10:47:16;19.00;99.90
52435;DHT22;38354;52.892;6.148;2023-05-07T10:52:14;19.00;99.90
52435;DHT22;38354;52.892;6.148;2023-05-07T10:54:45;19.00;99.90
52435;DHT22;38354;52.892;6.148;2023-05-07T10:57:35;19.00;99.90
52435;DHT22;38354;52.892;6.148;2023-05-07T11:00:41;19.00;99.90
52435;DHT22;38354;52.892;6.148;2023-05-07T11:03:17;18.80;99.90
52435;DHT22;38354;52.892;6.148;2023-05-07T11:05:42;18.80;99.90
52435;DHT22;38354;52.892;6.148;2023-05-07T11:08:09;18.80;99.90
52435;DHT22;38354;52.892;6.148;2023-05-07T11:10:55;18.80;99.90
52435;DHT22;38354;52.892;6.148;2023-05-07T11:13:44;18.90;99.90
52435;DHT22;38354;52.892;6.148;2023-05-07T11:16:21;19.10;99.90
52435;DHT22;38354;52.892;6.148;2023-05-07T11:18:52;19.10;99.90
52435;DHT22;38354;52.892;6.148;2023-05-07T11:21:39;19.20;99.90
52435;DHT22;38354;52.892;6.148;2023-05-07T11:24:07;19.30;99.90
52435;DHT22;38354;52.892;6.148;2023-05-07T11:26:47;19.30;99.90
52435;DHT22;38354;52.892;6.148;2023-05-07T11:29:18;19.30;99.90
52435;DHT22;38354;52.892;6.148;2023-05-07T11:31:48;19.40;99.90
52435;DHT22;38354;52.892;6.148;2023-05-07T11:34:14;19.40;99.90
52435;DHT22;38354;52.892;6.148;2023-05-07T11:36:42;19.40;99.90
52435;DHT22;38354;52.892;6.148;2023-05-07T11:39:44;19.40;99.90
52435;DHT22;38354;52.892;6.148;2023-05-07T11:42:31;19.40;99.90
52435;DHT22;38354;52.892;6.148;2023-05-07T11:44:57;19.40;99.90
52435;DHT22;38354;52.892;6.148;2023-05-07T11:47:24;19.50;99.90
52435;DHT22;38354;52.892;6.148;2023-05-07T11:49:54;19.50;99.90
52435;DHT22;38354;52.892;6.148;2023-05-07T11:52:22;19.60;99.90
52435;DHT22;38354;52.892;6.148;2023-05-07T11:54:55;19.50;99.90
52435;DHT22;38354;52.892;6.148;2023-05-07T11:57:25;19.60;99.90
52435;DHT22;38354;52.892;6.148;2023-05-07T11:59:58;19.60;99.90
52435;DHT22;38354;52.892;6.148;2023-05-07T12:02:24;19.60;99.90
52435;DHT22;38354;52.892;6.148;2023-05-07T12:04:51;19.60;99.90
52435;DHT22;38354;52.892;6.148;2023-05-07T12:07:17;19.70;99.90
52435;DHT22;38354;52.892;6.148;2023-05-07T12:09:44;19.90;99.90
52435;DHT22;38354;52.892;6.148;2023-05-07T12:12:10;19.90;99.90
52435;DHT22;38354;52.892;6.148;2023-05-07T12:14:39;20.00;99.90
52435;DHT22;38354;52.892;6.148;2023-05-07T12:17:07;20.00;99.90
52435;DHT22;38354;52.892;6.148;2023-05-07T12:19:34;20.10;99.90
52435;DHT22;38354;52.892;6.148;2023-05-07T12:22:02;20.10;99.90
52435;DHT22;38354;52.892;6.148;2023-05-07T12:24:28;20.20;99.90
52435;DHT22;38354;52.892;6.148;2023-05-07T12:26:53;20.30;99.90
52435;DHT22;38354;52.892;6.148;2023-05-07T12:29:23;20.40;99.90
52435;DHT22;38354;52.892;6.148;2023-05-07T12:31:50;20.60;99.90
52435;DHT22;38354;52.892;6.148;2023-05-07T12:34:17;20.80;99.90
52435;DHT22;38354;52.892;6.148;2023-05-07T12:36:42;21.00;99.90
52435;DHT22;38354;52.892;6.148;2023-05-07T12:39:08;21.10;99.90
52435;DHT22;38354;52.892;6.148;2023-05-07T12:41:55;21.20;99.90
52435;DHT22;38354;52.892;6.148;2023-05-07T12:44:25;21.20;99.90
52435;DHT22;38354;52.892;6.148;2023-05-07T12:46:54;21.20;99.90
52435;DHT22;38354;52.892;6.148;2023-05-07T12:49:19;21.10;99.90
52435;DHT22;38354;52.892;6.148;2023-05-07T12:51:47;21.00;99.90
52435;DHT22;38354;52.892;6.148;2023-05-07T12:54:13;20.80;99.90
52435;DHT22;38354;52.892;6.148;2023-05-07T12:56:39;20.70;99.90
52435;DHT22;38354;52.892;6.148;2023-05-07T12:59:05;20.70;99.90
52435;DHT22;38354;52.892;6.148;2023-05-07T13:01:31;20.60;99.90
52435;DHT22;38354;52.892;6.148;2023-05-07T13:04:03;20.60;99.90
52435;DHT22;38354;52.892;6.148;2023-05-07T13:06:30;20.50;99.90
52435;DHT22;38354;52.892;6.148;2023-05-07T13:08:56;20.50;99.90
52435;DHT22;38354;52.892;6.148;2023-05-07T13:11:22;20.50;99.90
52435;DHT22;38354;52.892;6.148;2023-05-07T13:13:48;20.50;99.90
52435;DHT22;38354;52.892;6.148;2023-05-07T13:16:14;20.50;99.90
52435;DHT22;38354;52.892;6.148;2023-05-07T13:18:40;20.50;99.90
52435;DHT22;38354;52.892;6.148;2023-05-07T13:21:06;20.50;99.90
52435;DHT22;38354;52.892;6.148;2023-05-07T13:23:31;20.50;99.90
52435;DHT22;38354;52.892;6.148;2023-05-07T13:25:57;20.60;99.90
52435;DHT22;38354;52.892;6.148;2023-05-07T13:28:24;20.70;99.90
52435;DHT22;38354;52.892;6.148;2023-05-07T13:30:49;20.80;99.90
52435;DHT22;38354;52.892;6.148;2023-05-07T13:33:17;21.00;99.90
52435;DHT22;38354;52.892;6.148;2023-05-07T13:35:44;21.40;99.90
52435;DHT22;38354;52.892;6.148;2023-05-07T13:38:09;21.90;99.90
52435;DHT22;38354;52.892;6.148;2023-05-07T13:40:35;22.30;99.90
52435;DHT22;38354;52.892;6.148;2023-05-07T13:43:01;22.30;99.90
52435;DHT22;38354;52.892;6.148;2023-05-07T13:45:30;22.20;99.90
52435;DHT22;38354;52.892;6.148;2023-05-07T13:47:56;22.00;99.90
52435;DHT22;38354;52.892;6.148;2023-05-07T13:50:22;21.70;99.90
52435;DHT22;38354;52.892;6.148;2023-05-07T13:52:48;21.50;99.90
52435;DHT22;38354;52.892;6.148;2023-05-07T13:55:21;21.30;99.90
52435;DHT22;38354;52.892;6.148;2023-05-07T13:57:47;21.20;99.90
52435;DHT22;38354;52.892;6.148;2023-05-07T14:00:14;21.20;99.90
52435;DHT22;38354;52.892;6.148;2023-05-07T14:02:40;21.30;99.90
52435;DHT22;38354;52.892;6.148;2023-05-07T14:05:06;21.50;99.90
52435;DHT22;38354;52.892;6.148;2023-05-07T14:07:32;21.80;99.90
52435;DHT22;38354;52.892;6.148;2023-05-07T14:09:58;22.20;99.90
52435;DHT22;38354;52.892;6.148;2023-05-07T14:12:24;22.40;99.90
52435;DHT22;38354;52.892;6.148;2023-05-07T14:14:50;22.70;99.90
52435;DHT22;38354;52.892;6.148;2023-05-07T14:17:17;23.00;99.90
52435;DHT22;38354;52.892;6.148;2023-05-07T14:19:43;23.30;99.90
52435;DHT22;38354;52.892;6.148;2023-05-07T14:22:09;23.50;99.90
52435;DHT22;38354;52.892;6.148;2023-05-07T14:24:35;23.60;99.90
52435;DHT22;38354;52.892;6.148;2023-05-07T14:27:00;23.70;99.90
52435;DHT22;38354;52.892;6.148;2023-05-07T14:29:26;23.60;99.90
52435;DHT22;38354;52.892;6.148;2023-05-07T14:31:51;23.70;99.90
52435;DHT22;38354;52.892;6.148;2023-05-07T14:34:17;23.60;99.90
52435;DHT22;38354;52.892;6.148;2023-05-07T14:36:43;23.70;99.90
52435;DHT22;38354;52.892;6.148;2023-05-07T14:39:09;23.70;99.90
52435;DHT22;38354;52.892;6.148;2023-05-07T14:41:35;23.70;99.90
52435;DHT22;38354;52.892;6.148;2023-05-07T14:44:01;23.70;99.90
52435;DHT22;38354;52.892;6.148;2023-05-07T14:46:27;23.80;99.90
52435;DHT22;38354;52.892;6.148;2023-05-07T14:48:52;23.80;99.90
52435;DHT22;38354;52.892;6.148;2023-05-07T14:51:18;23.80;99.90
52435;DHT22;38354;52.892;6.148;2023-05-07T14:53:44;23.70;99.90
52435;DHT22;38354;52.892;6.148;2023-05-07T14:56:10;23.70;99.90
52435;DHT22;38354;52.892;6.148;2023-05-07T14:58:36;23.50;99.90
52435;DHT22;38354;52.892;6.148;2023-05-07T15:01:02;23.50;99.90
52435;DHT22;38354;52.892;6.148;2023-05-07T15:03:28;23.40;99.90
52435;DHT22;38354;52.892;6.148;2023-05-07T15:05:55;23.40;99.90
52435;DHT22;38354;52.892;6.148;2023-05-07T15:08:20;23.50;99.90
52435;DHT22;38354;52.892;6.148;2023-05-07T15:10:46;23.50;99.90
52435;DHT22;38354;52.892;6.148;2023-05-07T15:13:12;23.50;99.90
52435;DHT22;38354;52.892;6.148;2023-05-07T15:15:41;23.40;99.90
52435;DHT22;38354;52.892;6.148;2023-05-07T15:18:07;23.40;99.90
52435;DHT22;38354;52.892;6.148;2023-05-07T15:20:33;23.40;99.90
52435;DHT22;38354;52.892;6.148;2023-05-07T15:22:59;23.40;99.90
52435;DHT22;38354;52.892;6.148;2023-05-07T15:25:24;23.50;99.90
52435;DHT22;38354;52.892;6.148;2023-05-07T15:27:50;23.40;99.90
52435;DHT22;38354;52.892;6.148;2023-05-07T15:30:18;23.60;99.90
52435;DHT22;38354;52.892;6.148;2023-05-07T15:32:45;23.60;99.90
52435;DHT22;38354;52.892;6.148;2023-05-07T15:35:11;23.70;99.90
52435;DHT22;38354;52.892;6.148;2023-05-07T15:37:36;23.70;99.90
52435;DHT22;38354;52.892;6.148;2023-05-07T15:40:02;23.80;99.90
52435;DHT22;38354;52.892;6.148;2023-05-07T15:42:30;23.70;99.90
52435;DHT22;38354;52.892;6.148;2023-05-07T15:44:56;23.60;99.90
52435;DHT22;38354;52.892;6.148;2023-05-07T15:47:21;23.60;99.90
52435;DHT22;38354;52.892;6.148;2023-05-07T15:49:47;23.60;99.90
52435;DHT22;38354;52.892;6.148;2023-05-07T15:52:13;23.70;99.90
52435;DHT22;38354;52.892;6.148;2023-05-07T15:54:42;23.80;99.90
52435;DHT22;38354;52.892;6.148;2023-05-07T15:57:07;23.80;99.90
52435;DHT22;38354;52.892;6.148;2023-05-07T15:59:33;23.80;99.90
52435;DHT22;38354;52.892;6.148;2023-05-07T16:02:00;23.80;99.90
52435;DHT22;38354;52.892;6.148;2023-05-07T16:04:26;23.80;99.90
52435;DHT22;38354;52.892;6.148;2023-05-07T16:06:53;23.70;99.90
52435;DHT22;38354;52.892;6.148;2023-05-07T16:09:19;23.60;99.90
52435;DHT22;38354;52.892;6.148;2023-05-07T16:11:44;23.60;99.90
52435;DHT22;38354;52.892;6.148;2023-05-07T16:14:10;23.60;99.90
52435;DHT22;38354;52.892;6.148;2023-05-07T16:16:36;23.60;99.90
52435;DHT22;38354;52.892;6.148;2023-05-07T16:19:02;23.60;99.90
52435;DHT22;38354;52.892;6.148;2023-05-07T16:21:28;23.60;99.90
52435;DHT22;38354;52.892;6.148;2023-05-07T16:23:55;23.60;99.90
52435;DHT22;38354;52.892;6.148;2023-05-07T16:26:21;23.60;99.90
52435;DHT22;38354;52.892;6.148;2023-05-07T16:28:47;23.60;99.90
52435;DHT22;38354;52.892;6.148;2023-05-07T16:31:13;23.50;99.90
52435;DHT22;38354;52.892;6.148;2023-05-07T16:33:38;23.30;99.90
52435;DHT22;38354;52.892;6.148;2023-05-07T16:36:05;23.20;99.90
52435;DHT22;38354;52.892;6.148;2023-05-07T16:38:31;23.10;99.90
52435;DHT22;38354;52.892;6.148;2023-05-07T16:40:58;23.00;99.90
52435;DHT22;38354;52.892;6.148;2023-05-07T16:43:24;22.80;99.90
52435;DHT22;38354;52.892;6.148;2023-05-07T16:45:50;22.60;99.90
52435;DHT22;38354;52.892;6.148;2023-05-07T16:48:16;22.50;99.90
52435;DHT22;38354;52.892;6.148;2023-05-07T16:50:42;22.40;99.90
52435;DHT22;38354;52.892;6.148;2023-05-07T16:53:09;22.40;99.90
52435;DHT22;38354;52.892;6.148;2023-05-07T16:55:38;22.30;99.90
52435;DHT22;38354;52.892;6.148;2023-05-07T16:58:08;22.20;99.90
52435;DHT22;38354;52.892;6.148;2023-05-07T17:00:34;22.10;99.90
52435;DHT22;38354;52.892;6.148;2023-05-07T17:03:02;22.00;99.90
52435;DHT22;38354;52.892;6.148;2023-05-07T17:05:28;22.00;99.90
52435;DHT22;38354;52.892;6.148;2023-05-07T17:07:54;21.90;99.90
52435;DHT22;38354;52.892;6.148;2023-05-07T17:10:21;21.70;99.90
52435;DHT22;38354;52.892;6.148;2023-05-07T17:12:47;21.60;99.90
52435;DHT22;38354;52.892;6.148;2023-05-07T17:15:13;21.40;99.90
52435;DHT22;38354;52.892;6.148;2023-05-07T17:17:39;21.30;99.90
52435;DHT22;38354;52.892;6.148;2023-05-07T17:20:06;21.20;99.90
52435;DHT22;38354;52.892;6.148;2023-05-07T17:22:32;21.00;99.90
52435;DHT22;38354;52.892;6.148;2023-05-07T17:24:58;20.90;99.90
52435;DHT22;38354;52.892;6.148;2023-05-07T17:27:24;20.80;99.90
52435;DHT22;38354;52.892;6.148;2023-05-07T17:29:50;20.80;99.90
52435;DHT22;38354;52.892;6.148;2023-05-07T17:32:15;20.80;99.90
52435;DHT22;38354;52.892;6.148;2023-05-07T17:34:41;20.80;99.90
52435;DHT22;38354;52.892;6.148;2023-05-07T17:37:07;20.80;99.90
52435;DHT22;38354;52.892;6.148;2023-05-07T17:39:32;20.80;99.90
52435;DHT22;38354;52.892;6.148;2023-05-07T17:41:58;20.70;99.90
52435;DHT22;38354;52.892;6.148;2023-05-07T17:44:24;20.80;99.90
52435;DHT22;38354;52.892;6.148;2023-05-07T17:46:50;20.80;99.90
52435;DHT22;38354;52.892;6.148;2023-05-07T17:49:15;20.80;99.90
52435;DHT22;38354;52.892;6.148;2023-05-07T17:51:42;20.90;99.90
52435;DHT22;38354;52.892;6.148;2023-05-07T17:54:07;21.00;99.90
52435;DHT22;38354;52.892;6.148;2023-05-07T17:56:33;21.10;99.90
52435;DHT22;38354;52.892;6.148;2023-05-07T17:58:59;21.20;99.90
52435;DHT22;38354;52.892;6.148;2023-05-07T18:01:24;21.20;99.90
52435;DHT22;38354;52.892;6.148;2023-05-07T18:03:50;21.20;99.90
52435;DHT22;38354;52.892;6.148;2023-05-07T18:06:16;21.10;99.90
52435;DHT22;38354;52.892;6.148;2023-05-07T18:08:46;21.00;99.90
52435;DHT22;38354;52.892;6.148;2023-05-07T18:11:12;20.90;99.90
52435;DHT22;38354;52.892;6.148;2023-05-07T18:13:38;20.70;99.90
52435;DHT22;38354;52.892;6.148;2023-05-07T18:16:04;20.50;99.90
52435;DHT22;38354;52.892;6.148;2023-05-07T18:18:30;20.30;99.90
52435;DHT22;38354;52.892;6.148;2023-05-07T18:20:57;20.10;99.90
52435;DHT22;38354;52.892;6.148;2023-05-07T18:23:23;19.90;99.90
52435;DHT22;38354;52.892;6.148;2023-05-07T18:25:49;19.80;99.90
52435;DHT22;38354;52.892;6.148;2023-05-07T18:28:15;19.60;99.90
52435;DHT22;38354;52.892;6.148;2023-05-07T18:30:41;19.40;99.90
52435;DHT22;38354;52.892;6.148;2023-05-07T18:33:06;19.30;99.90
52435;DHT22;38354;52.892;6.148;2023-05-07T18:35:32;19.10;99.90
52435;DHT22;38354;52.892;6.148;2023-05-07T18:37:58;19.00;99.90
52435;DHT22;38354;52.892;6.148;2023-05-07T18:40:24;18.90;99.90
52435;DHT22;38354;52.892;6.148;2023-05-07T18:42:50;18.80;99.90
52435;DHT22;38354;52.892;6.148;2023-05-07T18:45:15;18.70;99.90
52435;DHT22;38354;52.892;6.148;2023-05-07T18:47:41;18.60;99.90
52435;DHT22;38354;52.892;6.148;2023-05-07T18:50:07;18.50;99.90
52435;DHT22;38354;52.892;6.148;2023-05-07T18:52:34;18.40;99.90
52435;DHT22;38354;52.892;6.148;2023-05-07T18:55:00;18.40;99.90
52435;DHT22;38354;52.892;6.148;2023-05-07T18:57:25;18.30;99.90
52435;DHT22;38354;52.892;6.148;2023-05-07T18:59:54;18.20;99.90
52435;DHT22;38354;52.892;6.148;2023-05-07T19:02:20;18.20;99.90
52435;DHT22;38354;52.892;6.148;2023-05-07T19:04:46;18.10;99.90
52435;DHT22;38354;52.892;6.148;2023-05-07T19:07:11;18.10;99.90
52435;DHT22;38354;52.892;6.148;2023-05-07T19:09:37;18.00;99.90
52435;DHT22;38354;52.892;6.148;2023-05-07T19:12:03;17.90;99.90
52435;DHT22;38354;52.892;6.148;2023-05-07T19:14:29;17.90;99.90
52435;DHT22;38354;52.892;6.148;2023-05-07T19:16:55;17.80;99.90
52435;DHT22;38354;52.892;6.148;2023-05-07T19:19:21;17.70;99.90
52435;DHT22;38354;52.892;6.148;2023-05-07T19:21:46;17.70;99.90
52435;DHT22;38354;52.892;6.148;2023-05-07T19:24:12;17.70;99.90
52435;DHT22;38354;52.892;6.148;2023-05-07T19:26:38;17.60;99.90
52435;DHT22;38354;52.892;6.148;2023-05-07T19:29:04;17.60;99.90
52435;DHT22;38354;52.892;6.148;2023-05-07T19:31:30;17.50;99.90
52435;DHT22;38354;52.892;6.148;2023-05-07T19:33:58;17.40;99.90
52435;DHT22;38354;52.892;6.148;2023-05-07T19:36:24;17.30;99.90